Time;durP1;ratioP1;P1;durP2;ratioP2;P2;SDS_P1;SDS_P2;PMS_P1;PMS_P2;Temp;Humidity;BMP_temperature;BMP_pressure;BME280_temperature;BME280_humidity;BME280_pressure;Samples;Min_cycle;Max_cycle;Signal;HPM_P1;HPM_P2
2022/06/26 00:01:17;;;;;;;116.53;51.58;;;;;;;;;;4933813;29;20146;-86
2022/06/26 00:03:44;;;;;;;105.75;44.28;;;;;;;;;;4923977;28;20497;-86
2022/06/26 00:06:12;;;;;;;86.40;41.08;;;;;;;;;;4931037;29;20052;-85
2022/06/26 00:08:42;;;;;;;184.77;49.80;;;;;;;;;;4932915;29;20630;-85
2022/06/26 00:11:09;;;;;;;154.30;48.50;;;;;;;;;;4932546;29;20063;-85
2022/06/26 00:13:37;;;;;;;103.03;47.20;;;;;;;;;;4934611;29;20111;-86
2022/06/26 00:16:04;;;;;;;124.20;47.00;;;;;;;;;;4933850;29;20449;-86
2022/06/26 00:18:32;;;;;;;125.47;47.60;;;;;;;;;;4929969;29;20135;-85
2022/06/26 00:20:59;;;;;;;153.05;52.72;;;;;;;;;;4933078;29;20054;-86
2022/06/26 00:23:27;;;;;;;212.40;59.72;;;;;;;;;;4933200;29;20079;-84
2022/06/26 00:25:54;;;;;;;248.85;62.15;;;;;;;;;;4923574;29;20071;-84
2022/06/26 00:28:21;;;;;;;180.82;59.80;;;;;;;;;;4934124;29;20055;-85
2022/06/26 00:30:49;;;;;;;152.05;56.65;;;;;;;;;;4932548;29;20059;-85
2022/06/26 00:33:16;;;;;;;152.80;55.80;;;;;;;;;;4933471;29;20794;-84
2022/06/26 00:35:44;;;;;;;151.85;57.20;;;;;;;;;;4935929;29;20048;-84
2022/06/26 00:38:11;;;;;;;164.60;58.75;;;;;;;;;;4933357;29;20043;-84
2022/06/26 00:40:42;;;;;;;160.27;56.13;;;;;;;;;;4928737;29;20482;-85
2022/06/26 00:43:10;;;;;;;202.50;60.72;;;;;;;;;;4924979;29;20059;-85
2022/06/26 00:45:37;;;;;;;206.35;62.47;;;;;;;;;;4920150;29;20076;-85
2022/06/26 00:48:05;;;;;;;197.10;64.95;;;;;;;;;;4931124;29;20147;-85
2022/06/26 00:50:32;;;;;;;169.63;62.85;;;;;;;;;;4933313;29;20110;-85
2022/06/26 00:52:59;;;;;;;149.23;59.38;;;;;;;;;;4934037;29;20056;-85
2022/06/26 00:55:27;;;;;;;162.35;60.70;;;;;;;;;;4901732;29;20099;-86
2022/06/26 00:57:55;;;;;;;157.40;61.25;;;;;;;;;;4934218;29;20059;-85
2022/06/26 01:00:22;;;;;;;227.63;68.90;;;;;;;;;;4929427;29;20493;-85
2022/06/26 01:02:49;;;;;;;225.32;71.88;;;;;;;;;;4933615;29;20051;-85
2022/06/26 01:05:17;;;;;;;135.55;59.28;;;;;;;;;;4934589;29;20102;-85
2022/06/26 01:07:45;;;;;;;159.70;59.92;;;;;;;;;;4931537;29;20662;-85
2022/06/26 01:10:12;;;;;;;170.65;62.88;;;;;;;;;;4923807;29;20168;-85
2022/06/26 01:12:40;;;;;;;187.52;67.85;;;;;;;;;;4924266;29;20058;-85
2022/06/26 01:15:08;;;;;;;237.10;71.25;;;;;;;;;;4938376;29;20103;-85
2022/06/26 01:17:36;;;;;;;212.45;66.22;;;;;;;;;;4932916;29;20052;-85
2022/06/26 01:20:05;;;;;;;196.80;66.57;;;;;;;;;;4905974;29;20055;-85
2022/06/26 01:22:33;;;;;;;163.98;61.42;;;;;;;;;;4923249;29;20224;-85
2022/06/26 01:25:00;;;;;;;228.13;71.43;;;;;;;;;;4932893;29;20083;-85
2022/06/26 01:27:28;;;;;;;197.25;67.18;;;;;;;;;;4918365;29;20067;-85
2022/06/26 01:29:56;;;;;;;149.18;59.28;;;;;;;;;;4932478;29;20509;-84
2022/06/26 01:32:24;;;;;;;146.55;60.10;;;;;;;;;;4916671;29;20468;-84
2022/06/26 01:34:52;;;;;;;178.90;61.13;;;;;;;;;;4915742;29;20045;-84
2022/06/26 01:37:20;;;;;;;194.88;64.68;;;;;;;;;;4931763;29;20094;-84
2022/06/26 01:39:47;;;;;;;166.85;62.05;;;;;;;;;;4934138;29;20044;-83
2022/06/26 01:42:14;;;;;;;174.23;65.35;;;;;;;;;;4930687;29;20079;-84
2022/06/26 01:44:42;;;;;;;233.60;72.18;;;;;;;;;;4932415;29;20071;-85
2022/06/26 01:47:09;;;;;;;211.23;69.30;;;;;;;;;;4932902;29;20386;-84
2022/06/26 01:49:36;;;;;;;306.83;78.07;;;;;;;;;;4934108;29;20060;-84
2022/06/26 01:52:04;;;;;;;222.43;70.93;;;;;;;;;;4910775;29;20056;-84
2022/06/26 01:54:31;;;;;;;205.88;68.68;;;;;;;;;;4904780;29;20599;-85
2022/06/26 01:56:59;;;;;;;173.07;66.93;;;;;;;;;;4916025;29;20130;-85
2022/06/26 01:59:26;;;;;;;213.95;67.97;;;;;;;;;;4916646;29;20131;-85
2022/06/26 02:01:53;;;;;;;120.53;52.03;;;;;;;;;;4927567;29;20461;-84
2022/06/26 02:04:21;;;;;;;124.07;52.00;;;;;;;;;;4902818;29;20563;-84
2022/06/26 02:06:48;;;;;;;137.50;53.80;;;;;;;;;;4917225;29;20052;-84
2022/06/26 02:15:08;;;;;;;173.18;58.50;;;;;;;;;;4919511;29;20075;-84
2022/06/26 02:17:35;;;;;;;164.52;58.63;;;;;;;;;;4932616;29;20123;-85
2022/06/26 02:20:03;;;;;;;140.95;56.53;;;;;;;;;;4932482;29;20056;-85
2022/06/26 02:22:31;;;;;;;167.63;62.60;;;;;;;;;;4914351;29;20056;-84
2022/06/26 02:24:59;;;;;;;164.50;61.58;;;;;;;;;;4927028;29;20206;-85
2022/06/26 02:27:26;;;;;;;189.02;62.97;;;;;;;;;;4933492;29;20461;-84
2022/06/26 02:29:53;;;;;;;166.73;60.22;;;;;;;;;;4931832;29;20056;-84
2022/06/26 02:32:21;;;;;;;212.82;64.30;;;;;;;;;;4929910;29;20131;-84
2022/06/26 02:34:48;;;;;;;141.77;56.38;;;;;;;;;;4926764;29;20154;-84
2022/06/26 02:37:15;;;;;;;149.82;57.40;;;;;;;;;;4933534;29;20083;-84
2022/06/26 02:39:43;;;;;;;144.10;53.83;;;;;;;;;;4919709;29;20573;-84
2022/06/26 02:42:10;;;;;;;162.32;59.03;;;;;;;;;;4926334;29;20063;-84
2022/06/26 02:44:37;;;;;;;155.07;56.70;;;;;;;;;;4929239;29;20087;-84
2022/06/26 02:47:05;;;;;;;175.15;56.60;;;;;;;;;;4929451;29;20055;-85
2022/06/26 02:49:32;;;;;;;170.70;59.75;;;;;;;;;;4931224;29;20134;-84
2022/06/26 02:52:00;;;;;;;171.40;61.00;;;;;;;;;;4930765;29;20091;-84
2022/06/26 02:54:27;;;;;;;123.75;52.78;;;;;;;;;;4916764;29;20044;-84
2022/06/26 02:56:54;;;;;;;170.90;59.30;;;;;;;;;;4929393;29;20159;-84
2022/06/26 02:59:22;;;;;;;132.60;53.97;;;;;;;;;;4927064;29;20134;-83
2022/06/26 03:01:49;;;;;;;138.10;56.25;;;;;;;;;;4927647;29;20047;-83
2022/06/26 03:04:16;;;;;;;197.95;65.30;;;;;;;;;;4912421;29;20083;-83
2022/06/26 03:06:44;;;;;;;150.27;62.60;;;;;;;;;;4927896;29;20055;-83
2022/06/26 03:09:11;;;;;;;191.10;64.82;;;;;;;;;;4927538;29;20523;-83
2022/06/26 03:11:40;;;;;;;165.07;65.65;;;;;;;;;;4935241;29;20055;-84
2022/06/26 03:14:08;;;;;;;164.85;67.05;;;;;;;;;;4931774;29;20099;-84
2022/06/26 03:16:36;;;;;;;169.10;65.43;;;;;;;;;;4919424;29;20083;-83
2022/06/26 03:19:03;;;;;;;149.43;62.58;;;;;;;;;;4919699;29;20052;-84
2022/06/26 03:21:31;;;;;;;190.25;66.97;;;;;;;;;;4918948;29;20090;-83
2022/06/26 03:24:01;;;;;;;176.98;67.47;;;;;;;;;;4934061;29;20126;-83
2022/06/26 03:26:32;;;;;;;175.00;65.78;;;;;;;;;;4934531;29;20139;-83
2022/06/26 03:29:00;;;;;;;190.43;66.65;;;;;;;;;;4935877;29;20058;-82
2022/06/26 03:31:27;;;;;;;202.25;71.78;;;;;;;;;;4917990;29;20138;-81
2022/06/26 03:33:55;;;;;;;224.07;77.10;;;;;;;;;;4921983;29;20044;-82
2022/06/26 03:36:24;;;;;;;228.65;74.70;;;;;;;;;;4930555;29;20075;-82
2022/06/26 03:38:51;;;;;;;167.77;66.63;;;;;;;;;;4923313;29;20091;-82
2022/06/26 03:41:19;;;;;;;151.38;64.38;;;;;;;;;;4934932;29;20508;-82
2022/06/26 03:43:47;;;;;;;166.85;68.35;;;;;;;;;;4934170;29;20146;-82
2022/06/26 03:46:14;;;;;;;134.60;61.40;;;;;;;;;;4934650;29;20507;-82
2022/06/26 03:48:42;;;;;;;147.82;64.07;;;;;;;;;;4935402;29;20047;-82
2022/06/26 03:51:09;;;;;;;125.22;59.83;;;;;;;;;;4935664;29;20091;-83
2022/06/26 03:53:37;;;;;;;141.13;62.35;;;;;;;;;;4933862;29;20047;-83
2022/06/26 03:56:04;;;;;;;137.57;62.75;;;;;;;;;;4934403;29;20083;-82
2022/06/26 03:58:32;;;;;;;165.77;66.93;;;;;;;;;;4935769;29;20076;-82
2022/06/26 04:00:59;;;;;;;171.75;67.90;;;;;;;;;;4935640;29;20148;-82
2022/06/26 04:03:27;;;;;;;176.02;69.45;;;;;;;;;;4934040;29;20185;-82
2022/06/26 04:05:55;;;;;;;130.70;63.53;;;;;;;;;;4934733;29;20066;-82
2022/06/26 04:08:22;;;;;;;135.27;64.63;;;;;;;;;;4933473;29;20144;-82
2022/06/26 04:10:50;;;;;;;142.27;62.03;;;;;;;;;;4942655;29;20055;-82
2022/06/26 04:13:17;;;;;;;210.73;75.38;;;;;;;;;;4946380;29;20044;-81
2022/06/26 04:15:44;;;;;;;171.90;68.50;;;;;;;;;;4933921;29;20056;-82
2022/06/26 04:18:12;;;;;;;153.80;65.22;;;;;;;;;;4934292;29;20083;-82
2022/06/26 04:20:39;;;;;;;148.60;66.18;;;;;;;;;;4933999;29;20131;-83
2022/06/26 04:23:08;;;;;;;132.02;60.88;;;;;;;;;;4934032;29;20131;-82
2022/06/26 04:25:37;;;;;;;125.30;60.50;;;;;;;;;;4933529;29;20147;-82
2022/06/26 04:28:05;;;;;;;109.63;57.17;;;;;;;;;;4933920;29;20055;-83
2022/06/26 04:30:32;;;;;;;125.57;58.78;;;;;;;;;;4930026;29;20060;-82
2022/06/26 04:33:00;;;;;;;97.95;53.95;;;;;;;;;;4914100;29;20079;-81
2022/06/26 04:35:27;;;;;;;102.47;56.90;;;;;;;;;;4917961;29;20102;-82
2022/06/26 04:37:55;;;;;;;114.28;58.35;;;;;;;;;;4917856;29;20056;-82
2022/06/26 04:40:22;;;;;;;101.45;57.20;;;;;;;;;;4934590;29;20083;-81
2022/06/26 04:42:50;;;;;;;103.53;56.45;;;;;;;;;;4933157;29;20055;-82
2022/06/26 04:45:17;;;;;;;98.95;55.80;;;;;;;;;;4917582;29;20130;-82
2022/06/26 04:47:44;;;;;;;93.60;54.58;;;;;;;;;;4929370;29;20123;-82
2022/06/26 04:50:12;;;;;;;97.82;55.15;;;;;;;;;;4915372;29;20087;-82
2022/06/26 04:52:43;;;;;;;91.47;54.78;;;;;;;;;;4936293;29;20122;-82
2022/06/26 04:55:10;;;;;;;96.43;56.42;;;;;;;;;;4937680;29;20079;-82
2022/06/26 04:57:37;;;;;;;96.90;57.00;;;;;;;;;;4917097;29;20075;-82
2022/06/26 05:00:08;;;;;;;107.03;57.30;;;;;;;;;;4926931;29;20143;-82
2022/06/26 05:02:39;;;;;;;95.18;55.97;;;;;;;;;;4916532;29;20576;-82
2022/06/26 05:05:07;;;;;;;91.47;53.72;;;;;;;;;;4931582;29;20382;-82
2022/06/26 05:07:35;;;;;;;92.28;54.92;;;;;;;;;;4943371;29;20055;-82
2022/06/26 05:10:03;;;;;;;89.45;55.28;;;;;;;;;;4933150;29;20130;-82
2022/06/26 05:12:30;;;;;;;93.63;55.45;;;;;;;;;;4928399;29;20126;-82
2022/06/26 05:14:59;;;;;;;85.30;54.08;;;;;;;;;;4929251;29;20071;-83
2022/06/26 05:17:27;;;;;;;83.03;52.35;;;;;;;;;;4925197;29;20573;-83
2022/06/26 05:19:54;;;;;;;85.88;52.53;;;;;;;;;;4933988;29;20078;-82
2022/06/26 05:22:22;;;;;;;92.43;54.90;;;;;;;;;;4934167;29;20731;-82
2022/06/26 05:24:49;;;;;;;85.60;53.42;;;;;;;;;;4915551;29;20469;-83
2022/06/26 05:27:16;;;;;;;90.65;53.90;;;;;;;;;;4933674;29;20400;-82
2022/06/26 05:29:44;;;;;;;84.60;52.45;;;;;;;;;;4930129;29;20142;-83
2022/06/26 05:32:11;;;;;;;84.10;51.72;;;;;;;;;;4916640;29;20134;-83
2022/06/26 05:34:38;;;;;;;88.90;52.35;;;;;;;;;;4932501;29;20079;-83
2022/06/26 05:37:06;;;;;;;90.45;54.58;;;;;;;;;;4916805;29;20095;-83
2022/06/26 05:39:33;;;;;;;84.70;53.95;;;;;;;;;;4925605;29;20758;-84
2022/06/26 05:42:00;;;;;;;83.97;54.03;;;;;;;;;;4914345;29;20516;-83
2022/06/26 05:44:29;;;;;;;84.32;53.67;;;;;;;;;;4915040;29;20044;-83
2022/06/26 05:46:56;;;;;;;78.95;50.22;;;;;;;;;;4931752;29;20088;-84
2022/06/26 05:49:24;;;;;;;79.82;49.88;;;;;;;;;;4937905;29;20047;-84
2022/06/26 05:51:51;;;;;;;79.60;49.53;;;;;;;;;;4920945;29;20464;-84
2022/06/26 05:54:18;;;;;;;74.97;46.58;;;;;;;;;;4931964;29;20134;-83
2022/06/26 05:56:46;;;;;;;66.03;46.28;;;;;;;;;;4919612;29;20052;-88
2022/06/26 05:59:13;;;;;;;80.43;46.42;;;;;;;;;;4916696;29;20142;-88
2022/06/26 06:01:40;;;;;;;66.68;43.45;;;;;;;;;;4933019;29;20135;-87
2022/06/26 06:04:09;;;;;;;69.30;44.58;;;;;;;;;;4932968;29;20115;-87
2022/06/26 06:06:37;;;;;;;64.35;44.58;;;;;;;;;;4933078;29;20142;-88
2022/06/26 06:09:04;;;;;;;55.13;42.55;;;;;;;;;;4934635;28;20139;-88
2022/06/26 06:11:32;;;;;;;60.38;42.97;;;;;;;;;;4934222;29;20102;-89
2022/06/26 06:13:59;;;;;;;56.42;42.88;;;;;;;;;;4932894;29;20048;-89
2022/06/26 06:16:27;;;;;;;54.25;39.63;;;;;;;;;;4933546;29;20082;-92
2022/06/26 06:18:54;;;;;;;58.22;39.42;;;;;;;;;;4933548;29;20055;-90
2022/06/26 06:21:21;;;;;;;61.92;37.97;;;;;;;;;;4934327;29;20078;-88
2022/06/26 06:23:49;;;;;;;60.78;39.05;;;;;;;;;;4934507;29;20083;-86
2022/06/26 06:26:17;;;;;;;46.60;35.17;;;;;;;;;;4933033;29;20106;-84
2022/06/26 06:28:44;;;;;;;46.00;33.55;;;;;;;;;;4920662;29;20099;-82
2022/06/26 06:31:11;;;;;;;39.92;32.22;;;;;;;;;;4920879;29;20051;-83
2022/06/26 06:33:39;;;;;;;41.05;31.77;;;;;;;;;;4929125;29;20056;-82
2022/06/26 06:36:06;;;;;;;43.17;31.77;;;;;;;;;;4914030;29;20095;-82
2022/06/26 06:38:34;;;;;;;34.63;29.50;;;;;;;;;;4916407;29;20043;-83
2022/06/26 06:41:01;;;;;;;35.63;28.75;;;;;;;;;;4932133;29;20103;-85
2022/06/26 06:43:28;;;;;;;39.03;29.52;;;;;;;;;;4932394;29;20106;-83
2022/06/26 06:45:56;;;;;;;32.95;28.38;;;;;;;;;;4933449;29;20134;-85
2022/06/26 06:48:24;;;;;;;29.88;26.70;;;;;;;;;;4933413;29;20048;-82
2022/06/26 06:50:53;;;;;;;32.17;26.08;;;;;;;;;;4932624;29;20051;-81
2022/06/26 06:53:20;;;;;;;36.42;26.35;;;;;;;;;;4932466;29;20055;-81
2022/06/26 06:55:48;;;;;;;33.17;27.00;;;;;;;;;;4930479;29;20533;-82
2022/06/26 06:58:15;;;;;;;30.83;26.98;;;;;;;;;;4928690;29;20127;-82
2022/06/26 07:00:43;;;;;;;28.25;23.75;;;;;;;;;;4931868;29;20076;-83
2022/06/26 07:03:10;;;;;;;32.22;25.45;;;;;;;;;;4929855;29;20079;-83
2022/06/26 07:05:37;;;;;;;28.00;23.70;;;;;;;;;;4932771;29;20135;-84
2022/06/26 07:08:05;;;;;;;29.50;23.30;;;;;;;;;;4932738;29;20138;-84
2022/06/26 07:10:32;;;;;;;30.13;22.23;;;;;;;;;;4932143;29;20728;-84
2022/06/26 07:13:00;;;;;;;25.42;21.98;;;;;;;;;;4932761;29;20760;-84
2022/06/26 07:15:27;;;;;;;24.98;22.33;;;;;;;;;;4932371;29;20544;-84
2022/06/26 07:17:55;;;;;;;29.35;22.92;;;;;;;;;;4933540;29;20115;-84
2022/06/26 07:20:22;;;;;;;25.20;21.27;;;;;;;;;;4932937;29;20171;-85
2022/06/26 07:22:49;;;;;;;33.60;22.27;;;;;;;;;;4935077;29;20086;-84
2022/06/26 07:25:21;;;;;;;24.85;21.23;;;;;;;;;;4928659;29;20051;-84
2022/06/26 07:27:49;;;;;;;28.20;20.98;;;;;;;;;;4937091;29;20120;-84
2022/06/26 07:30:17;;;;;;;22.30;20.05;;;;;;;;;;4936017;29;20769;-84
2022/06/26 07:32:44;;;;;;;27.50;20.95;;;;;;;;;;4936177;29;20083;-85
2022/06/26 07:35:11;;;;;;;22.13;19.60;;;;;;;;;;4930187;29;20044;-85
2022/06/26 07:37:40;;;;;;;25.58;19.52;;;;;;;;;;4923040;29;20075;-85
2022/06/26 07:40:08;;;;;;;20.92;18.85;;;;;;;;;;4936402;29;20602;-85
2022/06/26 07:42:35;;;;;;;23.48;18.17;;;;;;;;;;4935984;29;20801;-85
2022/06/26 07:45:03;;;;;;;23.55;17.35;;;;;;;;;;4936490;29;20043;-87
2022/06/26 07:47:30;;;;;;;25.30;17.40;;;;;;;;;;4936041;29;20127;-85
2022/06/26 07:49:58;;;;;;;20.75;18.05;;;;;;;;;;4936310;29;20102;-86
2022/06/26 07:52:25;;;;;;;19.80;16.88;;;;;;;;;;4934956;29;20056;-85
2022/06/26 07:54:52;;;;;;;20.63;17.30;;;;;;;;;;4936313;29;20721;-85
2022/06/26 07:57:20;;;;;;;21.02;17.90;;;;;;;;;;4935503;29;20086;-85
2022/06/26 07:59:47;;;;;;;19.52;16.38;;;;;;;;;;4932242;29;20090;-85
2022/06/26 08:02:15;;;;;;;19.45;16.83;;;;;;;;;;4935633;29;20100;-86
2022/06/26 08:04:42;;;;;;;20.30;17.25;;;;;;;;;;4946759;29;20067;-85
2022/06/26 08:07:10;;;;;;;18.27;16.50;;;;;;;;;;4916029;29;20060;-84
2022/06/26 08:09:37;;;;;;;19.63;16.85;;;;;;;;;;4933197;29;20138;-86
2022/06/26 08:12:05;;;;;;;21.88;16.50;;;;;;;;;;4929611;29;20052;-85
2022/06/26 08:14:32;;;;;;;22.50;16.08;;;;;;;;;;4930327;29;20079;-81
2022/06/26 08:17:00;;;;;;;59.28;17.05;;;;;;;;;;4929929;29;20066;-84
2022/06/26 08:19:28;;;;;;;16.30;13.73;;;;;;;;;;4931935;29;20232;-83
2022/06/26 08:22:01;;;;;;;15.30;13.30;;;;;;;;;;4931821;29;20134;-83
2022/06/26 08:24:30;;;;;;;21.40;13.00;;;;;;;;;;4916641;29;20055;-83
2022/06/26 08:26:57;;;;;;;14.60;12.57;;;;;;;;;;4934078;29;20580;-83
2022/06/26 08:29:25;;;;;;;13.60;9.77;;;;;;;;;;4929191;29;20078;-77
2022/06/26 08:31:55;;;;;;;45.40;10.13;;;;;;;;;;4909352;29;20051;-78
2022/06/26 08:34:22;;;;;;;9.68;8.07;;;;;;;;;;4908201;29;20126;-78
2022/06/26 08:36:51;;;;;;;12.70;7.85;;;;;;;;;;4928463;29;20559;-77
2022/06/26 08:39:18;;;;;;;13.48;8.75;;;;;;;;;;4923120;29;20072;-77
2022/06/26 08:41:46;;;;;;;12.70;7.68;;;;;;;;;;4908661;29;20138;-76
2022/06/26 08:44:14;;;;;;;9.98;8.13;;;;;;;;;;4936301;29;20142;-77
2022/06/26 08:46:42;;;;;;;9.48;7.60;;;;;;;;;;4930396;29;20131;-78
2022/06/26 08:49:11;;;;;;;9.68;7.65;;;;;;;;;;4925584;29;20056;-78
2022/06/26 08:51:42;;;;;;;22.52;9.00;;;;;;;;;;4926946;29;20420;-78
2022/06/26 08:54:12;;;;;;;7.53;6.82;;;;;;;;;;4905827;29;20047;-78
2022/06/26 08:56:41;;;;;;;8.38;7.32;;;;;;;;;;4936479;29;20058;-78
2022/06/26 08:59:13;;;;;;;14.57;7.47;;;;;;;;;;4912693;29;20051;-79
2022/06/26 09:01:40;;;;;;;11.35;8.40;;;;;;;;;;4927266;29;20686;-77
2022/06/26 09:04:09;;;;;;;15.38;8.48;;;;;;;;;;4926257;29;20052;-78
2022/06/26 09:06:37;;;;;;;8.63;7.40;;;;;;;;;;4916202;29;20488;-77
2022/06/26 09:09:14;;;;;;;7.30;6.25;;;;;;;;;;4918114;29;20231;-78
2022/06/26 09:11:41;;;;;;;9.98;6.40;;;;;;;;;;4906487;29;20762;-78
2022/06/26 09:14:10;;;;;;;10.63;6.88;;;;;;;;;;4921348;29;20134;-79
2022/06/26 09:16:39;;;;;;;10.32;7.10;;;;;;;;;;4927961;29;20048;-79
2022/06/26 09:19:08;;;;;;;9.60;7.80;;;;;;;;;;4910705;29;20052;-78
2022/06/26 09:21:35;;;;;;;9.95;7.32;;;;;;;;;;4922518;29;20091;-79
2022/06/26 09:24:03;;;;;;;7.78;6.78;;;;;;;;;;4930035;29;20070;-79
2022/06/26 09:26:30;;;;;;;16.40;7.13;;;;;;;;;;4930919;29;20155;-80
2022/06/26 09:29:07;;;;;;;6.55;5.95;;;;;;;;;;4929779;29;20083;-80
2022/06/26 09:31:36;;;;;;;7.20;6.18;;;;;;;;;;4913961;29;20090;-77
2022/06/26 09:34:04;;;;;;;8.20;5.93;;;;;;;;;;4930635;29;20086;-77
2022/06/26 09:36:32;;;;;;;8.10;6.00;;;;;;;;;;4917240;29;20083;-78
2022/06/26 09:38:59;;;;;;;7.47;6.20;;;;;;;;;;4930574;29;20048;-77
2022/06/26 09:41:31;;;;;;;7.90;6.45;;;;;;;;;;4929715;29;20434;-78
2022/06/26 09:43:58;;;;;;;13.18;6.60;;;;;;;;;;4930169;29;20481;-78
2022/06/26 09:46:30;;;;;;;17.13;6.32;;;;;;;;;;4930666;29;20082;-79
2022/06/26 09:48:58;;;;;;;7.88;7.07;;;;;;;;;;4931364;29;20470;-79
2022/06/26 09:51:25;;;;;;;8.70;7.00;;;;;;;;;;4932518;29;20130;-79
2022/06/26 09:53:53;;;;;;;10.98;7.55;;;;;;;;;;4932615;29;20047;-79
2022/06/26 09:56:21;;;;;;;8.70;6.53;;;;;;;;;;4925992;29;20048;-79
2022/06/26 09:58:51;;;;;;;10.15;7.50;;;;;;;;;;4908805;29;20424;-79
2022/06/26 10:06:55;;;;;;;11.23;7.28;;;;;;;;;;4931777;29;20581;-80
2022/06/26 10:09:23;;;;;;;10.65;7.97;;;;;;;;;;4915339;29;20055;-79
2022/06/26 10:11:52;;;;;;;16.42;7.53;;;;;;;;;;4932022;29;20083;-79
2022/06/26 10:14:21;;;;;;;9.07;6.55;;;;;;;;;;4931735;29;20095;-80
2022/06/26 10:16:57;;;;;;;8.10;6.70;;;;;;;;;;4930824;29;20059;-79
2022/06/26 10:19:44;;;;;;;8.50;5.20;;;;;;;;;;4929347;29;20047;-79
2022/06/26 10:22:12;;;;;;;9.85;5.80;;;;;;;;;;4931799;29;20079;-79
2022/06/26 10:24:52;;;;;;;10.25;6.38;;;;;;;;;;4927132;29;20051;-78
2022/06/26 10:27:24;;;;;;;11.18;6.63;;;;;;;;;;4947809;29;20082;-80
2022/06/26 10:30:02;;;;;;;12.25;6.80;;;;;;;;;;4934334;29;20055;-79
2022/06/26 10:32:29;;;;;;;9.40;6.93;;;;;;;;;;4914993;29;20071;-77
2022/06/26 10:34:57;;;;;;;14.32;6.68;;;;;;;;;;4932612;29;20134;-78
2022/06/26 10:37:25;;;;;;;7.65;6.45;;;;;;;;;;4930922;29;20090;-78
2022/06/26 10:39:53;;;;;;;8.13;6.60;;;;;;;;;;4930369;29;20095;-78
2022/06/26 10:45:21;;;;;;;10.02;6.38;;;;;;;;;;4932752;29;20055;-79
2022/06/26 10:47:53;;;;;;;8.32;5.65;;;;;;;;;;4931471;29;20106;-78
2022/06/26 10:50:23;;;;;;;6.03;5.43;;;;;;;;;;4933008;29;20147;-78
2022/06/26 10:52:51;;;;;;;6.20;5.15;;;;;;;;;;4933210;29;20052;-79
2022/06/26 10:55:18;;;;;;;8.15;5.22;;;;;;;;;;4931495;29;20139;-79
2022/06/26 10:57:46;;;;;;;8.38;5.40;;;;;;;;;;4935216;29;20047;-78
2022/06/26 11:00:13;;;;;;;7.38;5.20;;;;;;;;;;4934140;29;20148;-78
2022/06/26 11:02:44;;;;;;;4.80;4.40;;;;;;;;;;4935681;29;20091;-79
2022/06/26 11:05:12;;;;;;;14.13;5.53;;;;;;;;;;4934852;29;20469;-79
2022/06/26 11:07:41;;;;;;;4.95;4.50;;;;;;;;;;4935633;29;20055;-78
2022/06/26 11:10:11;;;;;;;6.18;3.92;;;;;;;;;;4933991;29;20736;-77
2022/06/26 11:12:46;;;;;;;4.85;4.20;;;;;;;;;;4932900;29;20897;-78
2022/06/26 11:15:20;;;;;;;5.38;3.97;;;;;;;;;;4935075;29;20107;-79
2022/06/26 11:17:59;;;;;;;5.90;4.40;;;;;;;;;;4935572;29;20763;-80
2022/06/26 11:23:24;;;;;;;9.23;3.95;;;;;;;;;;4935919;29;20497;-80
2022/06/26 11:25:56;;;;;;;11.25;5.22;;;;;;;;;;4936522;29;20056;-79
2022/06/26 11:28:28;;;;;;;5.20;3.80;;;;;;;;;;4935730;29;20091;-79
2022/06/26 11:30:55;;;;;;;8.55;3.80;;;;;;;;;;4920942;29;20358;-80
2022/06/26 11:33:27;;;;;;;4.00;3.45;;;;;;;;;;4916746;29;20059;-78
2022/06/26 11:35:55;;;;;;;5.05;3.10;;;;;;;;;;4934344;29;20052;-78
2022/06/26 11:38:23;;;;;;;4.85;3.35;;;;;;;;;;4934276;29;20079;-79
2022/06/26 11:40:50;;;;;;;3.55;2.80;;;;;;;;;;4934876;29;20501;-79
2022/06/26 11:43:19;;;;;;;5.53;3.80;;;;;;;;;;4917998;29;20405;-81
2022/06/26 11:45:46;;;;;;;3.35;3.05;;;;;;;;;;4918784;29;20063;-79
2022/06/26 11:48:19;;;;;;;6.63;3.80;;;;;;;;;;4917796;29;20497;-78
2022/06/26 11:50:55;;;;;;;7.50;3.60;;;;;;;;;;4934652;29;20075;-78
2022/06/26 11:53:24;;;;;;;5.15;3.08;;;;;;;;;;4929872;29;20067;-78
2022/06/26 11:55:59;;;;;;;7.88;3.08;;;;;;;;;;4933976;29;20048;-83
2022/06/26 11:58:29;;;;;;;8.48;3.17;;;;;;;;;;4930951;29;20048;-87
2022/06/26 12:01:32;;;;;;;4.68;3.70;;;;;;;;;;4930095;29;20079;-78
2022/06/26 12:03:59;;;;;;;3.17;2.85;;;;;;;;;;4914403;29;20385;-78
2022/06/26 12:06:27;;;;;;;6.38;2.83;;;;;;;;;;4928832;29;20059;-79
2022/06/26 12:08:56;;;;;;;3.20;2.60;;;;;;;;;;4931006;29;20075;-79
2022/06/26 12:11:24;;;;;;;3.28;2.97;;;;;;;;;;4926684;29;20881;-78
2022/06/26 12:13:51;;;;;;;7.18;3.35;;;;;;;;;;4928367;29;20079;-80
2022/06/26 12:16:19;;;;;;;4.22;2.92;;;;;;;;;;4929952;29;20067;-78
2022/06/26 12:18:49;;;;;;;4.55;2.50;;;;;;;;;;4930582;29;20075;-77
2022/06/26 12:21:17;;;;;;;4.00;3.20;;;;;;;;;;4928273;29;20051;-79
2022/06/26 12:23:45;;;;;;;5.20;3.53;;;;;;;;;;4928723;29;20733;-77
2022/06/26 12:26:16;;;;;;;2.95;2.65;;;;;;;;;;4919904;29;20162;-78
2022/06/26 12:28:44;;;;;;;3.40;2.80;;;;;;;;;;4912171;29;20067;-79
2022/06/26 12:31:14;;;;;;;3.65;3.00;;;;;;;;;;4913517;29;20076;-78
2022/06/26 12:33:45;;;;;;;4.00;2.47;;;;;;;;;;4915943;29;20055;-78
2022/06/26 12:36:12;;;;;;;2.88;2.60;;;;;;;;;;4928495;29;20052;-77
2022/06/26 12:38:40;;;;;;;3.10;2.80;;;;;;;;;;4926173;29;20052;-78
2022/06/26 12:41:16;;;;;;;4.15;3.28;;;;;;;;;;4928000;29;20135;-82
2022/06/26 12:44:10;;;;;;;2.92;2.60;;;;;;;;;;4913553;29;20055;-83
2022/06/26 12:46:37;;;;;;;3.58;2.85;;;;;;;;;;4926467;29;21299;-83
2022/06/26 12:49:04;;;;;;;6.65;2.70;;;;;;;;;;4930626;29;20138;-82
2022/06/26 12:51:32;;;;;;;3.80;2.67;;;;;;;;;;4927213;29;20712;-82
2022/06/26 12:54:00;;;;;;;4.43;2.47;;;;;;;;;;4913760;29;20047;-82
2022/06/26 12:56:28;;;;;;;3.45;3.00;;;;;;;;;;4928871;29;20106;-81
2022/06/26 12:58:55;;;;;;;7.72;2.83;;;;;;;;;;4931071;29;20083;-82
2022/06/26 13:01:23;;;;;;;3.10;2.80;;;;;;;;;;4927540;29;20040;-81
2022/06/26 13:03:57;;;;;;;;;;;;;;;;;;4920906;29;20072;-82
2022/06/26 13:06:25;;;;;;;6.38;3.30;;;;;;;;;;4926794;29;19926;-82
2022/06/26 13:08:52;;;;;;;5.93;3.65;;;;;;;;;;4924315;29;20489;-84
2022/06/26 13:11:23;;;;;;;8.10;4.15;;;;;;;;;;4931493;29;20059;-83
2022/06/26 13:13:51;;;;;;;5.28;4.05;;;;;;;;;;4926931;29;20178;-83
2022/06/26 13:16:35;;;;;;;10.02;4.05;;;;;;;;;;4933862;29;20055;-85
2022/06/26 13:19:03;;;;;;;7.97;4.32;;;;;;;;;;4933513;29;20111;-84
2022/06/26 13:21:30;;;;;;;7.22;4.90;;;;;;;;;;4934525;29;20071;-85
2022/06/26 13:23:57;;;;;;;5.35;4.32;;;;;;;;;;4935011;29;20111;-84
2022/06/26 13:26:25;;;;;;;6.60;4.35;;;;;;;;;;4917603;29;20059;-85
2022/06/26 13:28:52;;;;;;;4.55;4.15;;;;;;;;;;4934609;29;20083;-85
2022/06/26 13:31:19;;;;;;;4.30;3.90;;;;;;;;;;4934515;29;20087;-84
2022/06/26 13:33:47;;;;;;;4.30;3.90;;;;;;;;;;4917334;29;20107;-84
2022/06/26 13:36:14;;;;;;;4.55;4.15;;;;;;;;;;4934448;29;20087;-84
2022/06/26 13:38:43;;;;;;;4.78;4.22;;;;;;;;;;4933247;29;20044;-84
2022/06/26 13:41:10;;;;;;;4.22;3.83;;;;;;;;;;4934307;29;20106;-84
2022/06/26 13:43:38;;;;;;;6.03;3.95;;;;;;;;;;4932241;29;20533;-83
2022/06/26 13:46:11;;;;;;;5.93;4.30;;;;;;;;;;4915516;29;20060;-82
2022/06/26 13:48:38;;;;;;;5.32;4.03;;;;;;;;;;4914140;29;20067;-84
2022/06/26 13:51:06;;;;;;;7.82;4.55;;;;;;;;;;4914978;29;20778;-84
2022/06/26 13:53:33;;;;;;;5.13;4.40;;;;;;;;;;4914885;29;20056;-84
2022/06/26 13:56:00;;;;;;;7.55;4.65;;;;;;;;;;4914057;29;20458;-84
2022/06/26 13:58:28;;;;;;;5.95;4.35;;;;;;;;;;4915248;29;20451;-85
2022/06/26 14:00:55;;;;;;;8.07;4.18;;;;;;;;;;4920957;29;20060;-84
2022/06/26 14:03:23;;;;;;;7.18;4.78;;;;;;;;;;4934057;29;20453;-84
2022/06/26 14:05:50;;;;;;;10.98;4.85;;;;;;;;;;4933895;29;20091;-83
2022/06/26 14:08:17;;;;;;;6.72;5.07;;;;;;;;;;4933959;29;20094;-83
2022/06/26 14:10:45;;;;;;;9.35;4.53;;;;;;;;;;4934388;29;20080;-83
2022/06/26 14:13:12;;;;;;;4.65;3.88;;;;;;;;;;4934460;29;20151;-84
2022/06/26 14:15:39;;;;;;;6.78;3.55;;;;;;;;;;4932161;29;20118;-84
2022/06/26 14:18:11;;;;;;;6.25;3.75;;;;;;;;;;4933955;29;20051;-84
2022/06/26 14:20:39;;;;;;;5.85;3.65;;;;;;;;;;4933846;29;20079;-84
2022/06/26 14:25:55;;;;;;;6.60;3.63;;;;;;;;;;4934038;29;20401;-84
2022/06/26 14:28:30;;;;;;;4.57;3.65;;;;;;;;;;4933786;29;20083;-84
2022/06/26 14:30:58;;;;;;;5.03;3.08;;;;;;;;;;4933942;29;20060;-84
2022/06/26 14:33:26;;;;;;;7.65;3.70;;;;;;;;;;4935624;29;20043;-82
2022/06/26 14:35:57;;;;;;;4.22;3.45;;;;;;;;;;4936587;29;20537;-83
2022/06/26 14:38:25;;;;;;;6.40;3.65;;;;;;;;;;4937410;29;20090;-83
2022/06/26 14:40:57;;;;;;;5.50;3.65;;;;;;;;;;4937628;29;20056;-82
2022/06/26 14:43:25;;;;;;;6.93;3.70;;;;;;;;;;4937487;29;20056;-84
2022/06/26 14:45:52;;;;;;;6.78;2.92;;;;;;;;;;4937909;29;20079;-83
2022/06/26 14:48:20;;;;;;;9.18;3.65;;;;;;;;;;4936277;29;20696;-83
2022/06/26 14:50:47;;;;;;;3.63;3.30;;;;;;;;;;4935884;29;20051;-83